createdAt,value
2022-10-09T00:01:09.518Z,7.19
2022-10-09T00:03:40.554Z,7.20
2022-10-09T00:06:10.794Z,7.19
2022-10-09T00:08:39.927Z,7.15
2022-10-09T00:11:09.307Z,7.21
2022-10-09T00:13:38.030Z,7.23
2022-10-09T00:16:07.691Z,7.13
2022-10-09T00:18:36.366Z,7.16
2022-10-09T00:21:06.758Z,7.16
2022-10-09T00:23:34.707Z,7.13
2022-10-09T00:26:03.144Z,7.11
2022-10-09T00:28:36.508Z,7.09
2022-10-09T00:31:07.282Z,7.08
2022-10-09T00:33:35.876Z,7.06
2022-10-09T00:36:06.458Z,7.03
2022-10-09T00:38:34.587Z,7.01
2022-10-09T00:41:02.716Z,7.01
2022-10-09T00:43:45.455Z,6.95
2022-10-09T00:46:21.436Z,6.99
2022-10-09T00:48:57.670Z,6.95
2022-10-09T00:51:27.853Z,6.95
2022-10-09T00:53:55.963Z,6.92
2022-10-09T00:56:24.320Z,6.93
2022-10-09T00:58:56.033Z,6.92
2022-10-09T01:01:24.071Z,6.95
2022-10-09T01:03:52.048Z,6.91
2022-10-09T01:06:24.597Z,6.95
2022-10-09T01:09:02.718Z,6.92
2022-10-09T01:11:39.811Z,6.93
2022-10-09T01:14:18.562Z,6.91
2022-10-09T01:16:51.782Z,6.91
2022-10-09T01:19:36.614Z,6.95
2022-10-09T01:22:15.419Z,6.99
2022-10-09T01:24:53.561Z,6.94
2022-10-09T01:27:25.261Z,6.90
2022-10-09T01:29:57.146Z,6.89
2022-10-09T01:32:29.365Z,6.95
2022-10-09T01:34:58.801Z,6.92
2022-10-09T01:37:29.535Z,6.99
2022-10-09T01:39:58.689Z,6.95
2022-10-09T01:42:30.245Z,6.96
2022-10-09T01:44:58.246Z,6.96
2022-10-09T01:47:26.693Z,7.02
2022-10-09T01:50:02.005Z,7.00
2022-10-09T01:52:43.091Z,7.05
2022-10-09T01:55:28.404Z,7.10
2022-10-09T01:58:05.629Z,7.13
2022-10-09T02:00:38.053Z,7.16
2022-10-09T02:03:10.707Z,7.14
2022-10-09T02:05:41.142Z,7.18
2022-10-09T02:08:10.989Z,7.16
2022-10-09T02:10:39.705Z,7.21
2022-10-09T02:13:09.567Z,7.20
2022-10-09T02:15:43.591Z,7.20
2022-10-09T02:18:15.948Z,7.18
2022-10-09T02:20:49.335Z,7.19
2022-10-09T02:23:19.044Z,7.16
2022-10-09T02:25:47.562Z,7.13
2022-10-09T02:28:17.039Z,7.12
2022-10-09T02:30:52.059Z,7.15
2022-10-09T02:33:27.065Z,7.13
2022-10-09T02:35:55.114Z,7.13
2022-10-09T02:38:23.153Z,7.09
2022-10-09T02:40:51.162Z,7.05
2022-10-09T02:43:20.586Z,7.01
2022-10-09T02:45:48.519Z,6.99
2022-10-09T02:48:16.447Z,6.97
2022-10-09T02:50:44.425Z,6.97
2022-10-09T02:53:12.410Z,6.93
2022-10-09T02:55:40.408Z,6.87
2022-10-09T02:58:08.438Z,6.85
2022-10-09T03:00:39.370Z,6.85
2022-10-09T03:03:07.373Z,6.82
2022-10-09T03:05:35.528Z,6.76
2022-10-09T03:08:03.478Z,6.82
2022-10-09T03:10:32.667Z,6.87
2022-10-09T03:13:00.673Z,6.90
2022-10-09T03:15:28.663Z,6.87
2022-10-09T03:17:57.977Z,6.88
2022-10-09T03:20:26.098Z,6.92
2022-10-09T03:22:56.573Z,6.91
2022-10-09T03:25:25.061Z,6.93
2022-10-09T03:27:53.237Z,6.85
2022-10-09T03:30:21.186Z,6.95
2022-10-09T03:32:49.373Z,6.95
2022-10-09T03:35:18.973Z,6.95
2022-10-09T03:37:46.907Z,6.97
2022-10-09T03:40:14.997Z,6.91
2022-10-09T03:42:42.945Z,6.86
2022-10-09T03:45:11.405Z,6.84
2022-10-09T03:47:39.331Z,6.84
2022-10-09T03:50:08.428Z,6.82
2022-10-09T03:52:37.767Z,6.78
2022-10-09T03:55:06.560Z,6.79
2022-10-09T03:57:34.661Z,6.77
2022-10-09T04:00:02.708Z,6.83
2022-10-09T04:02:32.295Z,6.82
2022-10-09T04:05:00.444Z,6.81
2022-10-09T04:07:28.398Z,6.77
2022-10-09T04:09:57.739Z,6.64
2022-10-09T04:12:25.693Z,6.55
2022-10-09T04:14:53.700Z,6.50
2022-10-09T04:17:21.661Z,6.39
2022-10-09T04:19:49.602Z,6.33
2022-10-09T04:22:18.011Z,6.19
2022-10-09T04:24:46.323Z,6.12
2022-10-09T04:27:15.997Z,6.14
2022-10-09T04:29:43.984Z,6.04
2022-10-09T04:32:11.953Z,5.96
2022-10-09T04:34:39.932Z,5.90
2022-10-09T04:37:07.891Z,5.88
2022-10-09T04:39:35.846Z,5.83
2022-10-09T04:42:03.866Z,5.77
2022-10-09T04:44:33.224Z,5.69
2022-10-09T04:47:01.192Z,5.64
2022-10-09T04:49:29.194Z,5.58
2022-10-09T04:51:57.280Z,5.61
2022-10-09T04:54:25.290Z,5.56
2022-10-09T04:56:53.271Z,5.52
2022-10-09T04:59:21.241Z,5.48
2022-10-09T05:01:50.671Z,5.35
2022-10-09T05:04:18.689Z,5.23
2022-10-09T05:06:46.666Z,5.22
2022-10-09T05:09:14.619Z,5.34
2022-10-09T05:11:43.082Z,5.40
2022-10-09T05:14:11.410Z,5.33
2022-10-09T05:16:55.277Z,5.43
2022-10-09T05:19:28.987Z,5.46
2022-10-09T05:21:56.926Z,5.36
2022-10-09T05:24:24.894Z,5.30
2022-10-09T05:26:52.889Z,5.22
2022-10-09T05:29:21.436Z,5.15
2022-10-09T05:31:49.842Z,5.03
2022-10-09T05:34:17.929Z,4.84
2022-10-09T05:36:47.277Z,4.83
2022-10-09T05:39:15.278Z,4.91
2022-10-09T05:41:43.321Z,4.94
2022-10-09T05:44:12.036Z,4.91
2022-10-09T05:46:40.027Z,4.94
2022-10-09T05:49:08.162Z,4.96
2022-10-09T05:51:38.665Z,5.00
2022-10-09T05:54:08.240Z,5.04
2022-10-09T05:56:37.979Z,5.09
2022-10-09T05:59:07.626Z,5.08
2022-10-09T06:01:37.519Z,5.12
2022-10-09T06:04:09.353Z,5.12
2022-10-09T06:06:38.703Z,5.10
2022-10-09T06:09:09.601Z,5.16
2022-10-09T06:11:39.390Z,5.17
2022-10-09T06:14:09.655Z,5.13
2022-10-09T06:16:39.444Z,5.29
2022-10-09T06:19:08.766Z,5.35
2022-10-09T06:21:36.914Z,5.38
2022-10-09T06:24:06.554Z,5.48
2022-10-09T06:26:36.154Z,5.50
2022-10-09T06:29:04.785Z,5.55
2022-10-09T06:31:34.073Z,5.66
2022-10-09T06:34:03.339Z,5.76
2022-10-09T06:36:33.404Z,5.85
2022-10-09T06:39:02.764Z,5.88
2022-10-09T06:41:30.893Z,5.96
2022-10-09T06:44:01.491Z,6.02
2022-10-09T06:46:32.185Z,6.10
2022-10-09T06:49:01.547Z,6.14
2022-10-09T06:51:30.917Z,6.17
2022-10-09T06:54:01.321Z,6.24
2022-10-09T06:56:31.245Z,6.28
2022-10-09T06:59:02.475Z,6.33
2022-10-09T07:01:32.168Z,6.35
2022-10-09T07:04:02.060Z,6.41
2022-10-09T07:06:31.408Z,6.49
2022-10-09T07:09:01.127Z,6.55
2022-10-09T07:11:31.514Z,6.59
2022-10-09T07:14:02.962Z,6.49
2022-10-09T07:16:32.749Z,6.71
2022-10-09T07:19:03.720Z,6.79
2022-10-09T07:21:31.698Z,6.88
2022-10-09T07:24:00.766Z,6.94
2022-10-09T07:26:31.433Z,6.99
2022-10-09T07:28:59.636Z,7.05
2022-10-09T07:31:29.164Z,7.07
2022-10-09T07:33:57.630Z,7.16
2022-10-09T07:36:26.242Z,7.21
2022-10-09T07:38:56.040Z,7.23
2022-10-09T07:41:25.429Z,7.19
2022-10-09T07:43:53.484Z,7.30
2022-10-09T07:46:23.925Z,7.35
2022-10-09T07:48:53.478Z,7.42
2022-10-09T07:51:23.288Z,7.50
2022-10-09T07:53:51.911Z,7.57
2022-10-09T07:56:22.285Z,7.58
2022-10-09T07:58:51.152Z,7.43
2022-10-09T08:01:20.694Z,7.59
2022-10-09T08:03:49.056Z,7.73
2022-10-09T08:06:19.281Z,7.79
2022-10-09T08:08:50.918Z,7.85
2022-10-09T08:11:20.495Z,7.91
2022-10-09T08:13:50.399Z,7.98
2022-10-09T08:16:19.694Z,8.07
2022-10-09T08:18:47.980Z,8.04
2022-10-09T08:21:18.829Z,8.20
2022-10-09T08:23:46.994Z,8.27
2022-10-09T08:26:15.351Z,8.33
2022-10-09T08:28:43.866Z,8.36
2022-10-09T08:31:13.165Z,8.45
2022-10-09T08:33:41.249Z,8.49
2022-10-09T08:36:11.772Z,8.54
2022-10-09T08:38:48.564Z,8.59
2022-10-09T08:41:28.162Z,8.69
2022-10-09T08:44:02.151Z,8.77
2022-10-09T08:46:35.213Z,8.82
2022-10-09T08:49:05.518Z,8.89
2022-10-09T08:51:39.199Z,8.99
2022-10-09T08:54:20.245Z,9.08
2022-10-09T08:56:50.775Z,9.13
2022-10-09T08:59:18.899Z,9.26
2022-10-09T09:01:57.945Z,9.34
2022-10-09T09:04:53.795Z,9.40
2022-10-09T09:07:29.880Z,9.47
2022-10-09T09:10:03.891Z,9.54
2022-10-09T09:12:40.809Z,9.60
2022-10-09T09:15:33.015Z,9.69
2022-10-09T09:18:16.814Z,9.75
2022-10-09T09:20:52.807Z,9.80
2022-10-09T09:23:26.737Z,9.89
2022-10-09T09:25:59.319Z,9.91
2022-10-09T09:28:30.496Z,9.94
2022-10-09T09:31:02.883Z,10.05
2022-10-09T09:33:44.262Z,10.11
2022-10-09T09:36:19.343Z,10.05
2022-10-09T09:39:12.907Z,10.29
2022-10-09T09:41:36.678Z,10.33
2022-10-09T09:44:06.194Z,10.40
2022-10-09T09:46:35.889Z,10.43
2022-10-09T09:49:09.248Z,10.55
2022-10-09T09:51:37.712Z,10.59
2022-10-09T09:54:08.822Z,10.66
2022-10-09T09:57:11.036Z,10.72
2022-10-09T09:59:34.072Z,10.88
2022-10-09T10:02:04.291Z,10.90
2022-10-09T10:04:32.466Z,11.03
2022-10-09T10:07:00.522Z,11.07
2022-10-09T10:09:28.514Z,11.13
2022-10-09T10:12:00.611Z,11.19
2022-10-09T10:14:29.505Z,11.20
2022-10-09T10:16:59.923Z,11.28
2022-10-09T10:19:29.852Z,11.27
2022-10-09T10:21:59.924Z,11.30
2022-10-09T10:24:32.566Z,11.38
2022-10-09T10:27:06.836Z,11.41
2022-10-09T10:29:38.266Z,11.44
2022-10-09T10:32:15.367Z,11.50
2022-10-09T10:34:49.573Z,11.51
2022-10-09T10:37:29.018Z,11.56
2022-10-09T10:40:02.539Z,11.66
2022-10-09T10:42:41.544Z,11.81
2022-10-09T10:45:15.611Z,11.79
2022-10-09T10:47:48.463Z,11.93
2022-10-09T10:50:18.547Z,12.04
2022-10-09T10:53:02.642Z,12.07
2022-10-09T10:55:44.601Z,12.07
2022-10-09T10:58:25.289Z,12.11
2022-10-09T11:01:03.963Z,12.15
2022-10-09T11:03:55.023Z,12.29
2022-10-09T11:06:28.152Z,12.39
2022-10-09T11:09:08.353Z,12.39
2022-10-09T11:11:42.934Z,12.45
2022-10-09T11:14:30.594Z,12.46
2022-10-09T11:17:07.162Z,12.41
2022-10-09T11:20:13.609Z,12.43
2022-10-09T11:22:54.805Z,12.42
2022-10-09T11:25:30.390Z,12.38
2022-10-09T11:28:03.385Z,12.35
2022-10-09T11:30:38.236Z,12.36
2022-10-09T11:33:16.977Z,12.39
2022-10-09T11:35:49.789Z,12.55
2022-10-09T11:38:26.575Z,12.65
2022-10-09T11:40:56.764Z,12.76
2022-10-09T11:43:44.387Z,12.77
2022-10-09T11:46:22.522Z,12.72
2022-10-09T11:48:56.913Z,12.66
2022-10-09T11:51:31.671Z,12.66
2022-10-09T11:54:00.281Z,12.77
2022-10-09T11:56:30.358Z,12.77
2022-10-09T11:59:00.244Z,12.76
2022-10-09T12:01:34.457Z,12.82
2022-10-09T12:04:05.982Z,12.81
2022-10-09T12:06:46.600Z,12.88
2022-10-09T12:09:23.048Z,12.88
2022-10-09T12:12:01.482Z,12.87
2022-10-09T12:14:31.545Z,12.85
2022-10-09T12:17:01.168Z,12.79
2022-10-09T12:19:32.370Z,12.93
2022-10-09T12:22:05.165Z,13.08
2022-10-09T12:24:38.711Z,13.19
2022-10-09T12:27:07.648Z,13.41
2022-10-09T12:29:42.902Z,13.63
2022-10-09T12:32:18.332Z,14.17
2022-10-09T12:34:48.786Z,14.61
2022-10-09T12:37:18.897Z,15.06
2022-10-09T12:39:48.118Z,15.49
2022-10-09T12:42:20.390Z,15.53
2022-10-09T12:44:50.630Z,15.32
2022-10-09T12:47:23.658Z,15.52
2022-10-09T12:50:02.076Z,15.52
2022-10-09T12:52:32.494Z,16.26
2022-10-09T12:55:02.532Z,17.66
2022-10-09T12:57:30.758Z,18.94
2022-10-09T12:59:59.289Z,19.93
2022-10-09T13:02:28.815Z,21.30
2022-10-09T13:05:00.617Z,21.95
2022-10-09T13:07:32.356Z,20.81
2022-10-09T13:10:04.727Z,19.28
2022-10-09T13:12:33.553Z,17.97
2022-10-09T13:15:03.363Z,17.09
2022-10-09T13:17:34.824Z,17.01
2022-10-09T13:20:23.811Z,18.19
2022-10-09T13:22:55.850Z,20.32
2022-10-09T13:25:24.256Z,20.51
2022-10-09T13:27:52.495Z,19.10
2022-10-09T13:30:20.653Z,18.30
2022-10-09T13:32:50.159Z,18.81
2022-10-09T13:35:18.438Z,19.68
2022-10-09T13:37:46.660Z,19.24
2022-10-09T13:40:18.029Z,18.60
2022-10-09T13:42:51.672Z,18.98
2022-10-09T13:45:19.795Z,19.36
2022-10-09T13:47:47.963Z,19.04
2022-10-09T13:50:19.923Z,19.51
2022-10-09T13:52:47.902Z,19.07
2022-10-09T13:55:16.023Z,18.75
2022-10-09T13:57:44.077Z,18.48
2022-10-09T14:00:13.247Z,18.26
2022-10-09T14:02:41.229Z,17.93
2022-10-09T14:05:09.592Z,17.62
2022-10-09T14:07:38.921Z,17.13
2022-10-09T14:10:07.691Z,16.50
2022-10-09T14:12:35.701Z,16.04
2022-10-09T14:15:03.726Z,15.58
2022-10-09T14:17:31.734Z,15.28
2022-10-09T14:19:59.711Z,15.00
2022-10-09T14:22:27.863Z,14.77
2022-10-09T14:24:57.257Z,14.55
2022-10-09T14:27:25.352Z,14.40
2022-10-09T14:29:55.395Z,14.34
2022-10-09T14:32:25.570Z,14.30
2022-10-09T14:34:53.866Z,14.23
2022-10-09T14:37:39.845Z,14.17
2022-10-09T14:40:11.322Z,14.07
2022-10-09T14:42:40.588Z,14.01
2022-10-09T14:45:10.435Z,13.98
2022-10-09T14:47:38.662Z,13.98
2022-10-09T14:50:07.445Z,13.96
2022-10-09T14:52:35.525Z,13.91
2022-10-09T14:55:03.669Z,13.92
2022-10-09T14:57:35.457Z,13.81
2022-10-09T15:00:05.728Z,13.74
2022-10-09T15:02:33.806Z,13.72
2022-10-09T15:05:01.892Z,13.66
2022-10-09T15:07:29.914Z,13.64
2022-10-09T15:09:57.942Z,13.58
2022-10-09T15:12:25.943Z,13.59
2022-10-09T15:14:55.313Z,13.48
2022-10-09T15:17:23.279Z,13.43
2022-10-09T15:19:51.253Z,13.41
2022-10-09T15:22:19.245Z,13.28
2022-10-09T15:24:48.102Z,13.26
2022-10-09T15:27:16.168Z,13.17
2022-10-09T15:29:44.161Z,13.05
2022-10-09T15:32:13.652Z,13.05
2022-10-09T15:34:41.668Z,13.02
2022-10-09T15:37:09.985Z,12.88
2022-10-09T15:39:38.148Z,12.79
2022-10-09T15:42:06.345Z,12.71
2022-10-09T15:44:34.371Z,12.61
2022-10-09T15:47:02.341Z,12.48
2022-10-09T15:49:31.718Z,12.36
2022-10-09T15:51:59.888Z,12.23
2022-10-09T15:54:27.948Z,12.19
2022-10-09T15:56:55.910Z,12.04
2022-10-09T15:59:23.951Z,11.96
2022-10-09T16:01:51.986Z,11.92
2022-10-09T16:04:20.062Z,11.81
2022-10-09T16:06:49.409Z,11.66
2022-10-09T16:09:17.361Z,11.56
2022-10-09T16:11:45.356Z,11.41
2022-10-09T16:14:13.399Z,11.33
2022-10-09T16:16:41.482Z,11.16
2022-10-09T16:19:09.528Z,11.04
2022-10-09T16:21:37.664Z,10.90
2022-10-09T16:24:07.201Z,10.75
2022-10-09T16:26:35.429Z,10.58
2022-10-09T16:29:03.410Z,10.39
2022-10-09T16:31:34.754Z,10.24
2022-10-09T16:34:03.927Z,10.19
2022-10-09T16:36:31.942Z,9.96
2022-10-09T16:39:00.197Z,9.80
2022-10-09T16:41:29.692Z,9.69
2022-10-09T16:44:00.123Z,9.64
2022-10-09T16:46:30.245Z,9.55
2022-10-09T16:48:59.497Z,9.48
2022-10-09T16:51:29.471Z,9.43
2022-10-09T16:53:59.290Z,9.37
2022-10-09T16:56:32.814Z,9.33
2022-10-09T16:59:02.334Z,9.30
2022-10-09T17:01:30.340Z,9.26
2022-10-09T17:03:59.987Z,9.15
2022-10-09T17:06:28.627Z,9.10
2022-10-09T17:08:58.675Z,9.05
2022-10-09T17:11:32.412Z,9.08
2022-10-09T17:14:01.766Z,9.06
2022-10-09T17:16:32.279Z,8.91
2022-10-09T17:19:00.720Z,8.87
2022-10-09T17:21:33.012Z,8.77
2022-10-09T17:24:04.489Z,8.69
2022-10-09T17:26:32.582Z,8.53
2022-10-09T17:29:02.596Z,8.48
2022-10-09T17:31:31.577Z,8.45
2022-10-09T17:34:02.609Z,8.35
2022-10-09T17:36:34.000Z,8.29
2022-10-09T17:39:02.212Z,8.03
2022-10-09T17:41:30.749Z,8.06
2022-10-09T17:43:59.719Z,7.98
2022-10-09T17:46:30.617Z,7.87
2022-10-09T17:48:59.659Z,7.76
2022-10-09T17:51:30.035Z,7.65
2022-10-09T17:54:01.134Z,7.56
2022-10-09T17:56:30.103Z,7.49
2022-10-09T17:58:59.842Z,7.43
2022-10-09T18:01:29.913Z,7.43
2022-10-09T18:03:58.470Z,7.41
2022-10-09T18:06:27.009Z,7.39
2022-10-09T18:08:57.227Z,7.41
2022-10-09T18:11:26.598Z,7.38
2022-10-09T18:13:55.531Z,7.30
2022-10-09T18:16:32.704Z,7.23
2022-10-09T18:19:06.235Z,7.24
2022-10-09T18:21:35.132Z,7.28
2022-10-09T18:24:03.206Z,7.30
2022-10-09T18:26:31.202Z,7.27
2022-10-09T18:28:59.924Z,7.26
2022-10-09T18:31:28.559Z,7.23
2022-10-09T18:33:58.034Z,7.18
2022-10-09T18:36:31.400Z,7.18
2022-10-09T18:39:02.234Z,7.16
2022-10-09T18:41:30.643Z,7.19
2022-10-09T18:44:00.244Z,7.22
2022-10-09T18:46:31.963Z,7.24
2022-10-09T18:49:00.571Z,7.23
2022-10-09T18:51:30.111Z,7.24
2022-10-09T18:54:02.782Z,7.23
2022-10-09T18:56:32.953Z,7.21
2022-10-09T18:59:02.182Z,7.21
2022-10-09T19:01:30.291Z,7.21
2022-10-09T19:03:58.244Z,7.22
2022-10-09T19:06:26.311Z,7.18
2022-10-09T19:08:57.881Z,7.16
2022-10-09T19:11:25.966Z,7.04
2022-10-09T19:13:54.608Z,7.01
2022-10-09T19:16:24.256Z,6.94
2022-10-09T19:18:53.217Z,6.77
2022-10-09T19:21:21.230Z,6.71
2022-10-09T19:23:51.597Z,6.62
2022-10-09T19:26:21.411Z,6.61
2022-10-09T19:28:50.033Z,6.48
2022-10-09T19:31:18.310Z,6.46
2022-10-09T19:33:46.376Z,6.46
2022-10-09T19:36:15.658Z,6.46
2022-10-09T19:38:43.748Z,6.48
2022-10-09T19:41:14.310Z,6.56
2022-10-09T19:43:43.937Z,6.60
2022-10-09T19:46:14.817Z,6.68
2022-10-09T19:48:42.797Z,6.71
2022-10-09T19:51:13.126Z,6.70
2022-10-09T19:53:42.288Z,6.66
2022-10-09T19:56:12.195Z,6.66
2022-10-09T19:58:41.096Z,6.64
2022-10-09T20:01:10.787Z,6.60
2022-10-09T20:03:39.075Z,6.60
2022-10-09T20:06:09.499Z,6.50
2022-10-09T20:08:37.950Z,6.66
2022-10-09T20:11:06.822Z,6.64
2022-10-09T20:13:36.903Z,6.69
2022-10-09T20:16:07.740Z,6.64
2022-10-09T20:18:39.222Z,6.64
2022-10-09T20:21:07.588Z,6.62
2022-10-09T20:23:35.615Z,6.71
2022-10-09T20:26:05.430Z,6.70
2022-10-09T20:28:34.087Z,6.77
2022-10-09T20:31:06.283Z,6.80
2022-10-09T20:33:34.797Z,6.85
2022-10-09T20:36:05.485Z,6.86
2022-10-09T20:38:33.536Z,6.86
2022-10-09T20:41:06.583Z,6.80
2022-10-09T20:43:34.783Z,6.84
2022-10-09T20:46:07.089Z,6.82
2022-10-09T20:48:35.274Z,6.80
2022-10-09T20:51:04.916Z,6.80
2022-10-09T20:53:33.209Z,6.68
2022-10-09T20:56:01.986Z,6.87
2022-10-09T20:58:30.363Z,6.82
2022-10-09T21:00:58.660Z,6.83
2022-10-09T21:03:27.159Z,6.88
2022-10-09T21:05:55.187Z,6.91
2022-10-09T21:08:24.513Z,6.88
2022-10-09T21:10:52.506Z,7.00
2022-10-09T21:13:20.513Z,6.97
2022-10-09T21:15:50.100Z,6.98
2022-10-09T21:18:20.051Z,7.04
2022-10-09T21:20:49.441Z,7.05
2022-10-09T21:23:19.594Z,7.06
2022-10-09T21:25:50.585Z,7.03
2022-10-09T21:28:19.201Z,7.04
2022-10-09T21:30:47.877Z,7.05
2022-10-09T21:33:16.745Z,6.78
2022-10-09T21:35:46.522Z,6.91
2022-10-09T21:38:17.304Z,6.78
2022-10-09T21:40:46.171Z,6.78
2022-10-09T21:43:15.795Z,6.66
2022-10-09T21:45:44.474Z,6.69
2022-10-09T21:48:16.511Z,6.57
2022-10-09T21:50:45.231Z,6.58
2022-10-09T21:53:13.665Z,6.56
2022-10-09T21:55:41.777Z,6.50
2022-10-09T21:58:10.788Z,6.46
2022-10-09T22:00:40.253Z,6.42
2022-10-09T22:03:08.194Z,6.38
2022-10-09T22:05:36.188Z,6.36
2022-10-09T22:08:04.182Z,6.25
2022-10-09T22:10:32.149Z,6.27
2022-10-09T22:13:00.278Z,6.25
2022-10-09T22:15:28.356Z,6.19
2022-10-09T22:17:57.701Z,6.25
2022-10-09T22:20:25.733Z,6.15
2022-10-09T22:22:53.805Z,6.11
2022-10-09T22:25:21.788Z,6.11
2022-10-09T22:27:49.763Z,6.13
2022-10-09T22:30:17.816Z,6.15
2022-10-09T22:32:45.775Z,6.10
2022-10-09T22:35:15.081Z,6.10
2022-10-09T22:37:43.021Z,6.16
2022-10-09T22:40:11.602Z,6.10
2022-10-09T22:42:39.647Z,6.04
2022-10-09T22:45:09.043Z,6.07
2022-10-09T22:47:37.061Z,6.06
2022-10-09T22:50:05.418Z,5.96
2022-10-09T22:52:34.767Z,5.88
2022-10-09T22:55:03.485Z,5.82
2022-10-09T22:57:31.497Z,5.78
2022-10-09T22:59:59.454Z,5.80
2022-10-09T23:02:27.419Z,5.81
2022-10-09T23:04:55.381Z,5.80
2022-10-09T23:07:23.367Z,5.80
2022-10-09T23:09:52.765Z,5.69
2022-10-09T23:12:20.722Z,5.70
2022-10-09T23:14:48.719Z,5.78
2022-10-09T23:17:16.655Z,5.64
2022-10-09T23:19:44.616Z,5.54
2022-10-09T23:22:12.623Z,5.52
2022-10-09T23:24:40.636Z,5.47
2022-10-09T23:27:10.125Z,5.41
2022-10-09T23:29:38.108Z,5.42
2022-10-09T23:32:06.081Z,5.36
2022-10-09T23:34:34.066Z,5.35
2022-10-09T23:37:02.023Z,5.32
2022-10-09T23:39:30.010Z,5.30
2022-10-09T23:41:57.985Z,5.32
2022-10-09T23:44:27.334Z,5.28
2022-10-09T23:46:55.354Z,5.34
2022-10-09T23:49:23.392Z,5.32
2022-10-09T23:51:51.393Z,5.29
2022-10-09T23:54:19.326Z,5.30
2022-10-09T23:56:47.292Z,5.31
2022-10-09T23:59:15.376Z,5.42
